createdAt,value
2023-05-18T00:01:24.743Z,2.22
2023-05-18T00:03:54.529Z,2.00
2023-05-18T00:06:22.813Z,2.33
2023-05-18T00:08:50.106Z,1.80
2023-05-18T00:11:18.302Z,2.17
2023-05-18T00:13:45.607Z,2.25
2023-05-18T00:16:13.979Z,1.60
2023-05-18T00:18:41.495Z,1.83
2023-05-18T00:21:09.342Z,1.83
2023-05-18T00:23:39.743Z,2.05
2023-05-18T00:26:07.121Z,2.00
2023-05-18T00:28:34.407Z,1.90
2023-05-18T00:31:01.770Z,1.70
2023-05-18T00:33:29.070Z,1.70
2023-05-18T00:35:57.756Z,2.10
2023-05-18T00:38:25.352Z,1.88
2023-05-18T00:40:52.760Z,1.90
2023-05-18T00:43:20.079Z,1.83
2023-05-18T00:45:47.353Z,1.88
2023-05-18T00:48:14.691Z,1.70
2023-05-18T00:50:42.083Z,2.00
2023-05-18T00:53:10.972Z,1.45
2023-05-18T00:55:38.486Z,1.45
2023-05-18T00:58:06.012Z,1.80
2023-05-18T01:00:37.911Z,1.70
2023-05-18T01:03:05.630Z,1.58
2023-05-18T01:05:33.124Z,1.33
2023-05-18T01:08:00.575Z,1.65
2023-05-18T01:10:27.907Z,1.23
2023-05-18T01:13:01.436Z,1.50
2023-05-18T01:15:42.141Z,1.73
2023-05-18T01:18:17.280Z,1.58
2023-05-18T01:20:57.827Z,1.30
2023-05-18T01:26:17.769Z,1.48
2023-05-18T01:28:47.090Z,1.60
2023-05-18T01:31:16.626Z,1.67
2023-05-18T01:33:46.897Z,1.17
2023-05-18T01:36:14.188Z,1.35
2023-05-18T01:38:44.178Z,1.73
2023-05-18T01:41:32.099Z,1.63
2023-05-18T01:44:18.489Z,1.67
2023-05-18T01:47:12.902Z,1.67
2023-05-18T01:49:59.305Z,1.33
2023-05-18T01:52:38.705Z,1.30
2023-05-18T01:55:08.274Z,1.27
2023-05-18T01:57:38.078Z,1.60
2023-05-18T02:00:09.006Z,1.40
2023-05-18T02:02:36.553Z,1.42
2023-05-18T02:05:05.838Z,1.17
2023-05-18T02:07:33.062Z,1.45
2023-05-18T02:10:00.321Z,1.08
2023-05-18T02:12:27.628Z,1.38
2023-05-18T02:14:55.666Z,1.27
2023-05-18T02:17:26.398Z,1.30
2023-05-18T02:19:53.777Z,1.30
2023-05-18T02:22:21.057Z,1.40
2023-05-18T02:24:48.501Z,1.80
2023-05-18T02:27:15.951Z,1.15
2023-05-18T02:29:43.308Z,1.70
2023-05-18T02:32:10.624Z,1.67
2023-05-18T02:34:38.513Z,1.70
2023-05-18T02:37:05.746Z,1.40
2023-05-18T02:39:34.143Z,1.85
2023-05-18T02:42:02.039Z,1.35
2023-05-18T02:44:29.301Z,1.45
2023-05-18T02:46:56.659Z,1.40
2023-05-18T02:49:23.954Z,1.40
2023-05-18T02:51:51.174Z,1.63
2023-05-18T02:54:18.386Z,1.48
2023-05-18T02:56:45.632Z,1.30
2023-05-18T02:59:13.261Z,2.00
2023-05-18T03:01:41.425Z,1.52
2023-05-18T03:04:08.702Z,1.50
2023-05-18T03:06:36.266Z,1.38
2023-05-18T03:09:03.600Z,1.38
2023-05-18T03:11:30.949Z,1.30
2023-05-18T03:13:58.188Z,1.25
2023-05-18T03:16:28.181Z,1.27
2023-05-18T03:18:59.245Z,1.42
2023-05-18T03:21:33.837Z,1.20
2023-05-18T03:24:01.413Z,1.67
2023-05-18T03:26:31.263Z,1.65
2023-05-18T03:28:59.244Z,1.40
2023-05-18T03:31:26.969Z,1.30
2023-05-18T03:33:54.349Z,1.63
2023-05-18T03:36:22.798Z,1.25
2023-05-18T03:38:50.149Z,1.35
2023-05-18T03:41:17.419Z,1.35
2023-05-18T03:43:44.751Z,1.73
2023-05-18T03:46:12.062Z,1.58
2023-05-18T03:48:39.377Z,2.08
2023-05-18T03:51:06.827Z,1.40
2023-05-18T03:53:34.129Z,0.93
2023-05-18T03:56:01.492Z,1.40
2023-05-18T03:58:29.446Z,1.80
2023-05-18T04:00:56.888Z,1.38
2023-05-18T04:03:27.319Z,1.80
2023-05-18T04:08:25.840Z,1.27
2023-05-18T04:10:53.273Z,1.60
2023-05-18T04:13:20.547Z,1.30
2023-05-18T04:15:47.916Z,1.05
2023-05-18T04:18:15.254Z,1.65
2023-05-18T04:20:42.870Z,1.17
2023-05-18T04:23:10.464Z,1.25
2023-05-18T04:25:39.636Z,1.33
2023-05-18T04:28:06.993Z,1.63
2023-05-18T04:30:35.691Z,1.70
2023-05-18T04:33:04.481Z,1.50
2023-05-18T04:35:32.339Z,1.38
2023-05-18T04:37:59.735Z,1.20
2023-05-18T04:40:27.006Z,1.30
2023-05-18T04:42:54.362Z,1.70
2023-05-18T04:45:22.297Z,1.17
2023-05-18T04:47:54.346Z,1.55
2023-05-18T04:50:25.666Z,1.60
2023-05-18T04:52:53.852Z,1.63
2023-05-18T04:55:29.488Z,1.70
2023-05-18T04:57:57.884Z,1.60
2023-05-18T05:00:26.546Z,1.48
2023-05-18T05:02:54.907Z,1.35
2023-05-18T05:05:22.851Z,1.48
2023-05-18T05:07:51.922Z,1.40
2023-05-18T05:10:20.112Z,1.45
2023-05-18T05:12:49.340Z,1.20
2023-05-18T05:15:17.445Z,1.25
2023-05-18T05:17:44.808Z,1.25
2023-05-18T05:20:12.183Z,1.23
2023-05-18T05:22:39.595Z,1.30
2023-05-18T05:25:07.281Z,1.30
2023-05-18T05:27:34.667Z,1.33
2023-05-18T05:30:02.054Z,1.23
2023-05-18T05:32:29.505Z,1.42
2023-05-18T05:34:56.972Z,1.40
2023-05-18T05:37:24.253Z,1.20
2023-05-18T05:39:51.945Z,1.00
2023-05-18T05:42:19.311Z,1.42
2023-05-18T05:44:46.619Z,1.40
2023-05-18T05:47:13.889Z,1.17
2023-05-18T05:49:41.382Z,1.50
2023-05-18T05:52:08.626Z,1.20
2023-05-18T05:54:35.945Z,1.30
2023-05-18T05:57:04.276Z,1.20
2023-05-18T05:59:31.566Z,1.33
2023-05-18T06:01:58.852Z,1.38
2023-05-18T06:04:26.402Z,1.23
2023-05-18T06:06:54.404Z,1.25
2023-05-18T06:09:21.869Z,1.10
2023-05-18T06:11:49.030Z,1.20
2023-05-18T06:14:16.192Z,1.08
2023-05-18T06:16:43.647Z,1.27
2023-05-18T06:19:11.390Z,1.50
2023-05-18T06:21:38.762Z,1.10
2023-05-18T06:24:06.612Z,1.00
2023-05-18T06:26:33.883Z,1.55
2023-05-18T06:29:01.492Z,0.85
2023-05-18T06:31:30.317Z,1.48
2023-05-18T06:33:57.864Z,0.80
2023-05-18T06:36:25.199Z,1.02
2023-05-18T06:38:52.417Z,0.95
2023-05-18T06:41:19.695Z,1.17
2023-05-18T06:43:46.959Z,0.65
2023-05-18T06:46:21.936Z,1.02
2023-05-18T06:48:49.096Z,1.20
2023-05-18T06:51:16.499Z,0.77
2023-05-18T06:53:44.057Z,0.90
2023-05-18T06:56:13.972Z,1.08
2023-05-18T06:58:42.764Z,0.93
2023-05-18T07:01:11.145Z,1.08
2023-05-18T07:03:38.405Z,1.02
2023-05-18T07:06:05.893Z,1.00
2023-05-18T07:08:33.693Z,0.70
2023-05-18T07:11:02.732Z,0.80
2023-05-18T07:13:30.048Z,0.50
2023-05-18T07:15:57.641Z,0.95
2023-05-18T07:18:25.123Z,1.13
2023-05-18T07:20:52.360Z,0.93
2023-05-18T07:23:19.593Z,0.50
2023-05-18T07:25:47.036Z,1.10
2023-05-18T07:28:14.239Z,1.10
2023-05-18T07:30:41.767Z,0.80
2023-05-18T07:33:09.076Z,0.90
2023-05-18T07:35:36.796Z,0.80
2023-05-18T07:38:04.095Z,0.88
2023-05-18T07:40:31.195Z,1.00
2023-05-18T07:42:58.325Z,1.38
2023-05-18T07:45:25.510Z,1.25
2023-05-18T07:47:52.964Z,0.75
2023-05-18T07:50:20.090Z,1.20
2023-05-18T07:52:47.218Z,0.77
2023-05-18T07:55:14.372Z,0.77
2023-05-18T07:57:41.507Z,0.68
2023-05-18T08:00:10.419Z,0.85
2023-05-18T08:02:38.176Z,0.98
2023-05-18T08:05:05.958Z,0.93
2023-05-18T08:07:33.666Z,0.80
2023-05-18T08:10:00.730Z,0.77
2023-05-18T08:12:29.034Z,0.73
2023-05-18T08:14:57.024Z,1.05
2023-05-18T08:17:24.273Z,1.00
2023-05-18T08:19:54.040Z,0.95
2023-05-18T08:22:21.545Z,0.77
2023-05-18T08:24:48.794Z,0.50
2023-05-18T08:27:16.196Z,0.90
2023-05-18T08:29:43.298Z,0.80
2023-05-18T08:32:10.516Z,0.85
2023-05-18T08:34:38.026Z,0.80
2023-05-18T08:37:05.568Z,1.08
2023-05-18T08:39:32.831Z,0.60
2023-05-18T08:42:04.230Z,0.80
2023-05-18T08:44:39.364Z,0.60
2023-05-18T08:47:11.523Z,0.40
2023-05-18T08:49:42.131Z,0.90
2023-05-18T08:54:38.111Z,0.80
2023-05-18T08:57:09.833Z,0.80
2023-05-18T08:59:41.712Z,0.70
2023-05-18T09:02:10.295Z,0.50
2023-05-18T09:04:39.228Z,0.68
2023-05-18T09:07:08.149Z,0.45
2023-05-18T09:09:36.213Z,0.73
2023-05-18T09:12:04.433Z,0.82
2023-05-18T09:14:32.948Z,0.55
2023-05-18T09:17:00.888Z,0.80
2023-05-18T09:19:28.815Z,0.90
2023-05-18T09:21:56.154Z,0.75
2023-05-18T09:24:24.873Z,1.05
2023-05-18T09:26:52.484Z,0.80
2023-05-18T09:29:21.500Z,0.70
2023-05-18T09:31:49.259Z,0.80
2023-05-18T09:34:19.283Z,0.77
2023-05-18T09:36:58.002Z,0.80
2023-05-18T09:39:25.234Z,0.60
2023-05-18T09:41:59.059Z,0.60
2023-05-18T09:44:35.377Z,0.45
2023-05-18T09:47:04.266Z,0.80
2023-05-18T09:49:31.767Z,0.57
2023-05-18T09:52:01.736Z,0.60
2023-05-18T09:54:29.460Z,0.60
2023-05-18T09:57:09.497Z,0.82
2023-05-18T09:59:38.017Z,0.73
2023-05-18T10:02:12.315Z,0.57
2023-05-18T10:04:43.793Z,0.60
2023-05-18T10:07:16.507Z,0.95
2023-05-18T10:09:45.865Z,0.80
2023-05-18T10:12:15.203Z,0.55
2023-05-18T10:14:45.025Z,0.80
2023-05-18T10:17:16.716Z,0.85
2023-05-18T10:19:45.747Z,0.90
2023-05-18T10:22:17.418Z,0.75
2023-05-18T10:24:50.359Z,0.88
2023-05-18T10:27:22.792Z,0.93
2023-05-18T10:29:52.719Z,0.73
2023-05-18T10:32:23.395Z,0.70
2023-05-18T10:34:56.457Z,0.65
2023-05-18T10:37:24.819Z,0.80
2023-05-18T10:39:53.484Z,0.75
2023-05-18T10:42:22.489Z,1.00
2023-05-18T10:44:53.014Z,0.80
2023-05-18T10:47:20.913Z,0.70
2023-05-18T10:49:49.598Z,0.80
2023-05-18T10:52:21.058Z,0.80
2023-05-18T10:54:48.751Z,0.80
2023-05-18T10:57:20.269Z,1.30
2023-05-18T10:59:48.497Z,1.15
2023-05-18T11:02:18.751Z,0.80
2023-05-18T11:04:48.176Z,0.93
2023-05-18T11:07:15.864Z,0.80
2023-05-18T11:09:44.470Z,0.85
2023-05-18T11:12:16.673Z,0.60
2023-05-18T11:14:57.951Z,0.98
2023-05-18T11:17:27.133Z,0.82
2023-05-18T11:20:09.523Z,0.95
2023-05-18T11:22:58.576Z,0.90
2023-05-18T11:25:26.009Z,0.65
2023-05-18T11:27:55.018Z,0.90
2023-05-18T11:30:34.611Z,1.05
2023-05-18T11:33:12.788Z,0.75
2023-05-18T11:36:03.774Z,0.90
2023-05-18T11:38:47.463Z,0.47
2023-05-18T11:41:39.363Z,1.00
2023-05-18T11:44:16.642Z,1.02
2023-05-18T11:46:58.973Z,0.80
2023-05-18T11:49:30.864Z,0.22
2023-05-18T11:52:12.877Z,0.90
2023-05-18T11:54:52.643Z,0.70
2023-05-18T11:57:24.088Z,0.80
2023-05-18T11:59:59.287Z,0.80
2023-05-18T12:02:28.853Z,0.98
2023-05-18T12:04:57.800Z,0.60
2023-05-18T12:07:25.479Z,0.70
2023-05-18T12:09:52.868Z,0.68
2023-05-18T12:12:20.571Z,0.75
2023-05-18T12:14:58.606Z,0.80
2023-05-18T12:17:44.050Z,0.75
2023-05-18T12:20:13.374Z,0.80
2023-05-18T12:22:42.176Z,0.90
2023-05-18T12:25:10.935Z,0.55
2023-05-18T12:27:50.938Z,0.60
2023-05-18T12:30:21.365Z,0.43
2023-05-18T12:35:32.078Z,0.70
2023-05-18T12:38:02.794Z,0.50
2023-05-18T12:55:10.940Z,0.75
2023-05-18T12:57:42.016Z,0.90
2023-05-18T13:00:12.853Z,0.90
2023-05-18T13:02:40.167Z,0.80
2023-05-18T13:05:12.082Z,0.75
2023-05-18T13:07:44.716Z,1.10
2023-05-18T13:10:15.893Z,0.77
2023-05-18T13:12:44.758Z,0.52
2023-05-18T13:15:17.140Z,0.50
2023-05-18T13:18:03.135Z,0.82
2023-05-18T13:20:33.338Z,0.45
2023-05-18T13:23:10.685Z,0.70
2023-05-18T13:25:38.430Z,0.70
2023-05-18T13:28:07.263Z,0.52
2023-05-18T13:30:34.594Z,0.60
2023-05-18T13:33:01.875Z,0.70
2023-05-18T13:35:29.735Z,0.50
2023-05-18T13:37:57.412Z,0.95
2023-05-18T13:40:25.945Z,0.35
2023-05-18T13:42:53.651Z,0.50
2023-05-18T13:45:24.218Z,0.57
2023-05-18T13:50:21.025Z,0.60
2023-05-18T13:52:48.566Z,0.80
2023-05-18T13:55:16.155Z,0.90
2023-05-18T13:57:43.476Z,0.60
2023-05-18T14:00:14.696Z,0.80
2023-05-18T14:02:43.449Z,0.68
2023-05-18T14:05:11.308Z,0.65
2023-05-18T14:07:39.502Z,0.70
2023-05-18T14:10:09.053Z,0.60
2023-05-18T14:12:37.378Z,0.65
2023-05-18T14:15:05.223Z,0.70
2023-05-18T14:17:35.409Z,0.73
2023-05-18T14:20:05.108Z,0.80
2023-05-18T14:22:32.840Z,0.50
2023-05-18T14:25:01.095Z,0.98
2023-05-18T14:27:29.065Z,0.60
2023-05-18T14:29:56.546Z,0.73
2023-05-18T14:32:23.954Z,0.40
2023-05-18T14:34:52.377Z,0.80
2023-05-18T14:37:19.766Z,0.55
2023-05-18T14:39:47.147Z,0.65
2023-05-18T14:42:14.311Z,0.43
2023-05-18T14:44:41.656Z,0.65
2023-05-18T14:47:09.877Z,0.70
2023-05-18T14:49:37.372Z,0.60
2023-05-18T14:52:04.777Z,0.90
2023-05-18T14:54:32.185Z,0.75
2023-05-18T14:57:00.192Z,0.80
2023-05-18T14:59:27.480Z,0.60
2023-05-18T15:01:54.715Z,0.63
2023-05-18T15:04:22.324Z,0.60
2023-05-18T15:06:50.036Z,0.70
2023-05-18T15:09:17.562Z,0.73
2023-05-18T15:11:44.878Z,0.60
2023-05-18T15:14:12.313Z,0.90
2023-05-18T15:16:39.772Z,0.55
2023-05-18T15:19:07.157Z,0.60
2023-05-18T15:21:34.597Z,0.70
2023-05-18T15:24:01.965Z,0.80
2023-05-18T15:26:29.380Z,0.68
2023-05-18T15:28:57.013Z,0.70
2023-05-18T15:31:24.295Z,0.80
2023-05-18T15:33:51.612Z,0.50
2023-05-18T15:36:18.997Z,0.50
2023-05-18T15:38:46.162Z,0.55
2023-05-18T15:41:13.463Z,0.80
2023-05-18T15:43:42.085Z,0.60
2023-05-18T15:46:09.432Z,0.70
2023-05-18T15:48:36.612Z,0.75
2023-05-18T15:51:03.871Z,0.75
2023-05-18T15:53:31.556Z,0.60
2023-05-18T15:55:59.572Z,0.60
2023-05-18T15:58:27.051Z,0.60
2023-05-18T16:00:54.432Z,0.60
2023-05-18T16:03:21.772Z,0.82
2023-05-18T16:05:49.179Z,0.60
2023-05-18T16:08:16.370Z,0.65
2023-05-18T16:10:43.560Z,0.60
2023-05-18T16:13:10.626Z,0.57
2023-05-18T16:15:37.819Z,0.65
2023-05-18T16:18:05.416Z,0.63
2023-05-18T16:20:32.914Z,0.40
2023-05-18T16:23:00.329Z,0.80
2023-05-18T16:25:29.072Z,0.50
2023-05-18T16:27:56.654Z,0.63
2023-05-18T16:30:24.046Z,0.60
2023-05-18T16:32:51.353Z,0.50
2023-05-18T16:35:18.673Z,0.40
2023-05-18T16:37:46.012Z,0.50
2023-05-18T16:40:13.356Z,0.60
2023-05-18T16:42:40.840Z,0.50
2023-05-18T16:45:08.400Z,0.55
2023-05-18T16:47:35.683Z,0.52
2023-05-18T16:50:02.950Z,0.60
2023-05-18T16:52:30.310Z,0.50
2023-05-18T16:54:57.668Z,0.70
2023-05-18T16:57:26.714Z,0.60
2023-05-18T16:59:54.778Z,0.85
2023-05-18T17:02:24.442Z,0.40
2023-05-18T17:04:51.785Z,0.52
2023-05-18T17:07:19.125Z,0.57
2023-05-18T17:09:46.390Z,0.60
2023-05-18T17:12:13.719Z,0.63
2023-05-18T17:14:40.952Z,0.85
2023-05-18T17:17:08.692Z,0.80
2023-05-18T17:19:36.379Z,0.60
2023-05-18T17:22:04.207Z,0.70
2023-05-18T17:24:31.491Z,0.70
2023-05-18T17:26:59.006Z,0.50
2023-05-18T17:29:27.421Z,0.50
2023-05-18T17:31:54.717Z,0.50
2023-05-18T17:34:22.892Z,0.50
2023-05-18T17:36:50.465Z,0.57
2023-05-18T17:39:17.783Z,0.40
2023-05-18T17:41:45.096Z,0.50
2023-05-18T17:44:16.693Z,0.55
2023-05-18T17:46:45.972Z,0.63
2023-05-18T17:49:14.373Z,0.55
2023-05-18T17:51:42.208Z,0.35
2023-05-18T17:54:09.621Z,0.60
2023-05-18T17:56:37.146Z,0.57
2023-05-18T17:59:05.432Z,0.60
2023-05-18T18:01:33.828Z,0.73
2023-05-18T18:04:01.345Z,0.43
2023-05-18T18:06:28.697Z,0.70
2023-05-18T18:08:58.603Z,0.60
2023-05-18T18:11:26.738Z,0.60
2023-05-18T18:13:54.706Z,0.47
2023-05-18T18:16:22.711Z,0.75
2023-05-18T18:18:50.766Z,0.57
2023-05-18T18:21:18.027Z,0.60
2023-05-18T18:23:45.515Z,0.73
2023-05-18T18:26:12.766Z,0.50
2023-05-18T18:28:40.100Z,0.50
2023-05-18T18:31:07.327Z,0.40
2023-05-18T18:33:34.989Z,0.50
2023-05-18T18:36:04.140Z,0.50
2023-05-18T18:38:33.440Z,0.38
2023-05-18T18:41:05.309Z,0.75
2023-05-18T18:43:32.989Z,0.52
2023-05-18T18:46:00.323Z,0.75
2023-05-18T18:48:27.784Z,0.70
2023-05-18T18:50:55.137Z,0.63
2023-05-18T18:53:22.490Z,0.63
2023-05-18T18:55:50.237Z,0.93
2023-05-18T18:58:17.499Z,0.70
2023-05-18T19:00:44.891Z,0.50
2023-05-18T19:03:14.731Z,0.60
2023-05-18T19:05:41.890Z,0.80
2023-05-18T19:08:09.159Z,0.65
2023-05-18T19:10:36.360Z,0.40
2023-05-18T19:13:06.146Z,0.57
2023-05-18T19:15:36.982Z,0.63
2023-05-18T19:18:04.397Z,0.52
2023-05-18T19:20:32.332Z,0.60
2023-05-18T19:22:59.577Z,0.38
2023-05-18T19:25:26.850Z,0.70
2023-05-18T19:27:54.437Z,0.50
2023-05-18T19:30:23.056Z,0.43
2023-05-18T19:32:51.753Z,0.75
2023-05-18T19:35:23.927Z,0.88
2023-05-18T19:37:51.977Z,0.60
2023-05-18T19:40:19.630Z,0.55
2023-05-18T19:42:48.758Z,0.55
2023-05-18T19:45:16.421Z,0.88
2023-05-18T19:47:43.733Z,0.60
2023-05-18T19:50:11.886Z,0.52
2023-05-18T19:52:39.160Z,0.70
2023-05-18T19:55:07.096Z,0.60
2023-05-18T19:57:34.371Z,0.55
2023-05-18T20:00:02.604Z,0.55
2023-05-18T20:02:29.801Z,0.60
2023-05-18T20:04:57.233Z,0.55
2023-05-18T20:07:24.513Z,0.40
2023-05-18T20:09:53.270Z,0.55
2023-05-18T20:12:20.783Z,0.50
2023-05-18T20:14:48.661Z,0.60
2023-05-18T20:17:17.037Z,0.70
2023-05-18T20:19:51.173Z,0.60
2023-05-18T20:22:18.618Z,0.55
2023-05-18T20:24:46.324Z,0.40
2023-05-18T20:27:15.050Z,0.52
2023-05-18T20:29:42.426Z,0.60
2023-05-18T20:32:09.719Z,0.40
2023-05-18T20:34:36.957Z,0.60
2023-05-18T20:37:04.806Z,0.57
2023-05-18T20:39:33.104Z,0.57
2023-05-18T20:42:00.477Z,0.50
2023-05-18T20:44:28.904Z,0.65
2023-05-18T20:46:56.098Z,0.70
2023-05-18T20:49:25.167Z,0.60
2023-05-18T20:51:52.355Z,0.52
2023-05-18T20:54:21.536Z,0.85
2023-05-18T20:56:49.211Z,0.60
2023-05-18T20:59:16.587Z,0.70
2023-05-18T21:01:44.013Z,0.68
2023-05-18T21:04:12.978Z,0.70
2023-05-18T21:06:41.287Z,0.40
2023-05-18T21:09:08.619Z,0.50
2023-05-18T21:11:36.064Z,0.65
2023-05-18T21:14:03.384Z,0.75
2023-05-18T21:16:30.852Z,0.80
2023-05-18T21:18:58.106Z,0.60
2023-05-18T21:21:25.732Z,0.77
2023-05-18T21:23:52.924Z,0.80
2023-05-18T21:26:20.203Z,0.80
2023-05-18T21:28:47.291Z,0.50
2023-05-18T21:31:14.520Z,0.50
2023-05-18T21:33:42.377Z,0.90
2023-05-18T21:36:10.531Z,0.88
2023-05-18T21:38:37.680Z,1.00
2023-05-18T21:41:04.898Z,0.63
2023-05-18T21:43:32.110Z,0.95
2023-05-18T21:45:59.319Z,0.55
2023-05-18T21:48:26.571Z,0.60
2023-05-18T21:50:53.728Z,0.60
2023-05-18T21:53:20.880Z,0.80
2023-05-18T21:55:48.393Z,0.90
2023-05-18T21:58:15.604Z,0.93
2023-05-18T22:00:42.950Z,0.63
2023-05-18T22:03:10.239Z,0.70
2023-05-18T22:05:38.648Z,0.80
2023-05-18T22:08:05.819Z,0.80
2023-05-18T22:10:33.269Z,0.60
2023-05-18T22:13:01.093Z,0.85
2023-05-18T22:15:28.506Z,0.68
2023-05-18T22:17:55.955Z,0.90
2023-05-18T22:20:24.239Z,0.60
2023-05-18T22:22:51.410Z,0.55
2023-05-18T22:25:19.052Z,0.77
2023-05-18T22:27:46.739Z,0.73
2023-05-18T22:30:14.379Z,0.70
2023-05-18T22:32:41.730Z,0.65
2023-05-18T22:35:09.729Z,0.80
2023-05-18T22:37:36.965Z,0.90
2023-05-18T22:40:06.527Z,0.60
2023-05-18T22:42:34.108Z,0.67
2023-05-18T22:45:02.530Z,0.73
2023-05-18T22:47:30.420Z,0.60
2023-05-18T22:49:57.682Z,0.60
2023-05-18T22:52:24.981Z,0.77
2023-05-18T22:54:52.198Z,0.70
2023-05-18T22:57:19.423Z,0.82
2023-05-18T22:59:46.689Z,1.00
2023-05-18T23:02:14.107Z,0.85
2023-05-18T23:04:41.471Z,0.85
2023-05-18T23:07:08.917Z,0.93
2023-05-18T23:09:38.596Z,0.90
2023-05-18T23:12:06.826Z,0.90
2023-05-18T23:14:34.157Z,0.88
2023-05-18T23:17:01.395Z,0.60
2023-05-18T23:19:28.709Z,0.77
2023-05-18T23:21:56.882Z,1.27
2023-05-18T23:24:24.139Z,0.80
2023-05-18T23:26:51.503Z,0.60
2023-05-18T23:29:18.797Z,0.57
2023-05-18T23:31:46.278Z,0.70
2023-05-18T23:34:13.909Z,0.75
2023-05-18T23:36:44.852Z,0.60
2023-05-18T23:39:12.580Z,0.80
2023-05-18T23:41:41.978Z,0.65
2023-05-18T23:44:09.686Z,0.80
2023-05-18T23:46:37.364Z,0.70
2023-05-18T23:49:05.423Z,0.73
2023-05-18T23:51:36.461Z,0.93
2023-05-18T23:54:07.534Z,0.75
2023-05-18T23:56:35.315Z,0.73
2023-05-18T23:59:03.001Z,0.65
